Terminal Aerodrome Forecast
Issued by NWS

Home | Current Version | Previous Version | Text Only | Print | Product List | Glossary On
Versions: 1 2 3 4 5 6 7 8 9 10 11 12 13 14 15 16 17
000
FTUS42 KGSP 270534
TAFGMU
TAF
KGMU 270534Z 2706/2806 22003KT 6SM BR VCSH BKN100
     FM270900 VRB02KT 5SM BR OVC020
      TEMPO 2709/2712 OVC008
     FM271300 26003KT P6SM VCSH BKN060 PROB30 2716/2719 4SM -TSRA
      OVC040CB
     FM271900 23007KT P6SM VCTS BKN050CB
     FM272200 26003KT P6SM VCSH BKN050 PROB30 2722/2804 4SM -TSRA
      OVC040CB=

USA.gov is the U.S. government's official web portal to all federal, state and local government web resources and services.